Time;durP1;ratioP1;P1;durP2;ratioP2;P2;SDS_P1;SDS_P2;PMS_P1;PMS_P2;Temp;Humidity;BMP_temperature;BMP_pressure;BME280_temperature;BME280_humidity;BME280_pressure;Samples;Min_cycle;Max_cycle;Signal;HPM_P1;HPM_P2
2021/03/06 00:00:58;;;;;;;3.57;1.33;;;-2.80;99.90;;;;;;4979890;28;20193;-78
2021/03/06 00:03:23;;;;;;;1.60;1.00;;;-2.80;99.90;;;;;;4980620;28;20960;-83
2021/03/06 00:05:49;;;;;;;2.20;1.20;;;-2.80;99.90;;;;;;4978763;28;20279;-79
2021/03/06 00:08:15;;;;;;;1.47;1.37;;;-2.80;99.90;;;;;;4981225;28;20183;-80
2021/03/06 00:10:40;;;;;;;0.93;0.80;;;-2.80;99.90;;;;;;4981996;28;20210;-79
2021/03/06 00:13:06;;;;;;;1.57;1.33;;;-2.80;99.90;;;;;;4982270;28;20282;-82
2021/03/06 00:15:31;;;;;;;2.90;1.60;;;-2.90;99.90;;;;;;4978667;28;20196;-79
2021/03/06 00:17:57;;;;;;;1.33;1.23;;;-2.90;99.90;;;;;;4980194;28;21006;-80
2021/03/06 00:20:23;;;;;;;1.17;1.07;;;-3.00;99.90;;;;;;4982950;28;20189;-79
2021/03/06 00:22:50;;;;;;;1.50;1.20;;;-2.90;99.90;;;;;;4979434;28;20718;-83
2021/03/06 00:25:17;;;;;;;1.37;0.93;;;-2.80;99.90;;;;;;4979435;28;20196;-79
2021/03/06 00:27:42;;;;;;;1.13;0.80;;;-2.90;99.90;;;;;;4996934;28;20343;-80
2021/03/06 00:30:10;;;;;;;1.07;0.80;;;-2.80;99.90;;;;;;4981397;28;20263;-80
2021/03/06 00:32:36;;;;;;;1.37;1.03;;;-2.90;99.90;;;;;;4980923;28;20905;-80
2021/03/06 00:35:03;;;;;;;2.50;1.47;;;-2.90;99.90;;;;;;4979253;28;20197;-81
2021/03/06 00:37:29;;;;;;;1.40;1.13;;;-3.00;99.90;;;;;;4977176;28;20195;-80
2021/03/06 00:39:54;;;;;;;2.37;1.27;;;-3.00;99.90;;;;;;4980886;28;20192;-80
2021/03/06 00:42:20;;;;;;;1.10;0.80;;;-3.00;99.90;;;;;;4978753;28;20713;-81
2021/03/06 00:44:46;;;;;;;1.80;1.70;;;-3.10;99.90;;;;;;4980194;28;20192;-79
2021/03/06 00:47:11;;;;;;;1.40;1.10;;;-3.10;99.90;;;;;;4980519;28;20199;-78
2021/03/06 00:49:37;;;;;;;1.60;0.97;;;-3.10;99.90;;;;;;4979933;28;20198;-78
2021/03/06 00:52:03;;;;;;;0.80;0.80;;;-3.10;99.90;;;;;;4979503;28;20231;-82
2021/03/06 00:54:28;;;;;;;1.50;1.40;;;-3.10;99.90;;;;;;4977960;28;20192;-79
2021/03/06 00:56:54;;;;;;;2.13;1.37;;;-3.00;99.90;;;;;;4977314;28;20547;-78
2021/03/06 00:59:19;;;;;;;2.13;1.13;;;-2.80;99.90;;;;;;4979703;28;20242;-81
2021/03/06 01:01:45;;;;;;;0.83;0.80;;;-2.80;99.90;;;;;;4978407;28;20717;-79
2021/03/06 01:04:11;;;;;;;0.50;0.50;;;-2.90;99.90;;;;;;4978855;28;20185;-78
2021/03/06 01:06:36;;;;;;;0.87;0.87;;;-2.90;99.90;;;;;;4979166;28;20193;-81
2021/03/06 01:09:03;;;;;;;1.67;1.00;;;-2.90;99.90;;;;;;4981961;28;20674;-80
2021/03/06 01:11:29;;;;;;;0.80;0.80;;;-3.00;99.90;;;;;;4980654;28;20207;-79
2021/03/06 01:13:54;;;;;;;0.50;0.50;;;-3.00;99.90;;;;;;4993822;28;20216;-80
2021/03/06 01:16:20;;;;;;;0.87;0.83;;;-3.10;99.90;;;;;;4982457;28;20191;-81
2021/03/06 01:18:46;;;;;;;0.93;0.93;;;-3.20;99.90;;;;;;4977581;28;20271;-78
2021/03/06 01:21:11;;;;;;;0.73;0.73;;;-3.10;99.90;;;;;;4980786;28;20204;-78
2021/03/06 01:23:37;;;;;;;0.67;0.67;;;-3.20;99.90;;;;;;4977967;28;20246;-78
2021/03/06 01:26:03;;;;;;;1.40;1.30;;;-3.20;99.90;;;;;;4981040;28;20673;-80
2021/03/06 01:28:28;;;;;;;1.43;1.10;;;-3.20;99.90;;;;;;4977652;28;20188;-80
2021/03/06 01:30:54;;;;;;;1.77;1.33;;;-3.20;99.90;;;;;;4978312;28;20192;-78
2021/03/06 01:33:19;;;;;;;1.37;1.03;;;-3.30;99.90;;;;;;4978724;28;20227;-81
2021/03/06 01:35:45;;;;;;;1.93;1.37;;;-3.30;99.90;;;;;;4977801;28;20185;-82
2021/03/06 01:38:10;;;;;;;1.67;1.10;;;-3.30;99.90;;;;;;4978252;28;20296;-81
2021/03/06 01:40:37;;;;;;;1.20;0.70;;;-3.40;99.90;;;;;;4977393;28;20184;-80
2021/03/06 01:43:06;;;;;;;0.40;0.40;;;-3.40;99.90;;;;;;4978985;28;20214;-81
2021/03/06 01:45:31;;;;;;;1.77;1.43;;;-3.30;99.90;;;;;;4978404;28;20227;-80
2021/03/06 01:47:57;;;;;;;1.57;1.17;;;-3.40;99.90;;;;;;4978519;28;20200;-79
2021/03/06 01:50:28;;;;;;;1.00;1.00;;;-3.40;99.90;;;;;;4978588;28;20204;-80
2021/03/06 01:52:55;;;;;;;0.83;0.80;;;-3.40;99.90;;;;;;4978023;28;20216;-78
2021/03/06 01:55:25;;;;;;;1.30;0.70;;;-3.40;99.90;;;;;;5011289;28;20184;-80
2021/03/06 01:57:52;;;;;;;1.13;1.03;;;-3.40;99.90;;;;;;4977780;28;20662;-79
2021/03/06 02:00:20;;;;;;;1.30;0.90;;;-3.50;99.90;;;;;;4979173;28;20219;-82
2021/03/06 02:02:47;;;;;;;0.70;0.57;;;-3.40;99.90;;;;;;4976493;28;20289;-80
2021/03/06 02:05:14;;;;;;;0.97;0.70;;;-3.40;99.90;;;;;;4992267;28;20188;-80
2021/03/06 02:07:39;;;;;;;1.20;1.07;;;-3.40;99.90;;;;;;4976925;28;20188;-80
2021/03/06 02:10:06;;;;;;;1.63;1.00;;;-3.40;99.90;;;;;;4977069;28;20185;-78
2021/03/06 02:12:35;;;;;;;1.07;0.93;;;-3.40;99.90;;;;;;4976878;28;20261;-80
2021/03/06 02:15:13;;;;;;;0.57;0.57;;;-3.40;99.90;;;;;;4978200;28;20192;-78
2021/03/06 02:18:00;;;;;;;0.53;0.53;;;-3.40;99.90;;;;;;4978970;28;20196;-81
2021/03/06 02:20:29;;;;;;;0.80;0.80;;;-3.50;99.90;;;;;;4993576;28;20340;-81
2021/03/06 02:23:08;;;;;;;1.23;0.43;;;-3.50;99.90;;;;;;4977626;28;20220;-82
2021/03/06 02:26:18;;;;;;;2.37;0.93;;;-3.50;99.90;;;;;;4977300;28;20184;-80
2021/03/06 02:29:04;;;;;;;1.20;0.87;;;-3.50;99.90;;;;;;4959569;28;20206;-79
2021/03/06 02:31:33;;;;;;;1.07;0.70;;;-3.60;99.90;;;;;;4974655;28;20184;-78
2021/03/06 02:34:12;;;;;;;1.07;0.97;;;-3.60;99.90;;;;;;4976114;28;20213;-78
2021/03/06 02:36:45;;;;;;;0.50;0.50;;;-3.60;99.90;;;;;;4978602;28;20211;-80
2021/03/06 02:39:15;;;;;;;1.30;0.97;;;-3.60;99.90;;;;;;4991574;28;20187;-81
2021/03/06 02:41:43;;;;;;;3.00;2.10;;;-3.60;99.90;;;;;;4976933;28;20205;-81
2021/03/06 02:44:11;;;;;;;1.93;1.27;;;-3.60;99.90;;;;;;4977249;28;20265;-79
2021/03/06 02:46:38;;;;;;;1.57;0.90;;;-3.60;99.90;;;;;;4975800;28;20184;-79
2021/03/06 02:49:04;;;;;;;2.77;0.83;;;-3.70;99.90;;;;;;4978998;28;20180;-81
2021/03/06 02:51:42;;;;;;;0.57;0.57;;;-3.60;99.90;;;;;;4979041;28;20185;-78
2021/03/06 02:54:10;;;;;;;0.73;0.60;;;-3.70;99.90;;;;;;4977722;28;20188;-79
2021/03/06 02:56:36;;;;;;;3.13;1.37;;;-3.70;99.90;;;;;;4979166;28;20224;-79
2021/03/06 02:59:08;;;;;;;0.60;0.47;;;-3.70;99.90;;;;;;5011074;28;20189;-77
2021/03/06 03:01:47;;;;;;;1.70;1.20;;;-3.70;99.90;;;;;;4977784;28;20196;-80
2021/03/06 03:04:26;;;;;;;0.80;0.80;;;-3.60;99.90;;;;;;4995080;28;20180;-80
2021/03/06 03:07:00;;;;;;;0.50;0.50;;;-3.60;99.90;;;;;;4977952;28;20187;-80
2021/03/06 03:09:29;;;;;;;0.73;0.73;;;-3.60;99.90;;;;;;5007571;28;20172;-81
2021/03/06 03:12:20;;;;;;;0.53;0.53;;;-3.60;99.90;;;;;;4978152;28;20547;-79
2021/03/06 03:14:51;;;;;;;1.33;0.60;;;-3.50;99.90;;;;;;4978656;28;20203;-78
2021/03/06 03:17:27;;;;;;;0.67;0.67;;;-3.60;99.90;;;;;;4975218;28;20206;-80
2021/03/06 03:19:58;;;;;;;2.77;1.10;;;-3.70;99.90;;;;;;4978999;28;20187;-80
2021/03/06 03:22:27;;;;;;;0.93;0.83;;;-3.70;99.90;;;;;;4991301;28;20809;-83
2021/03/06 03:24:55;;;;;;;0.60;0.57;;;-3.70;99.90;;;;;;4978351;28;20709;-79
2021/03/06 03:27:23;;;;;;;2.40;2.20;;;-3.70;99.90;;;;;;4993691;28;20185;-79
2021/03/06 03:29:50;;;;;;;1.63;1.10;;;-3.80;99.90;;;;;;4982195;28;20184;-80
2021/03/06 03:32:16;;;;;;;0.87;0.87;;;-3.80;99.90;;;;;;4997939;28;20212;-78
2021/03/06 03:34:43;;;;;;;1.20;0.80;;;-3.80;99.90;;;;;;4983112;28;20189;-80
2021/03/06 03:37:10;;;;;;;0.60;0.60;;;-3.80;99.90;;;;;;4983141;28;20527;-82
2021/03/06 03:39:36;;;;;;;1.20;1.10;;;-3.80;99.90;;;;;;4979741;28;20193;-80
2021/03/06 03:42:05;;;;;;;1.27;1.03;;;-3.80;99.90;;;;;;4979470;28;20216;-83
2021/03/06 03:44:31;;;;;;;0.60;0.60;;;-3.80;99.90;;;;;;4978361;28;20184;-83
2021/03/06 03:46:57;;;;;;;0.80;0.80;;;-3.90;99.90;;;;;;4981418;28;20650;-82
2021/03/06 03:49:23;;;;;;;1.23;0.83;;;-3.80;99.90;;;;;;4979739;28;20169;-81
2021/03/06 03:51:49;;;;;;;0.50;0.50;;;-3.80;99.90;;;;;;4981213;28;20183;-79
2021/03/06 03:54:15;;;;;;;0.60;0.40;;;-3.80;99.90;;;;;;4979626;28;20191;-80
2021/03/06 03:56:42;;;;;;;1.07;1.07;;;-3.80;99.90;;;;;;4981150;28;20192;-80
2021/03/06 03:59:08;;;;;;;1.00;0.80;;;-3.90;99.90;;;;;;4982670;28;20189;-79
2021/03/06 04:01:44;;;;;;;0.67;0.53;;;-3.80;99.90;;;;;;4980265;28;21107;-81
2021/03/06 04:04:23;;;;;;;2.63;0.87;;;-3.80;99.90;;;;;;5013677;28;20231;-79
2021/03/06 04:06:49;;;;;;;1.33;0.80;;;-3.90;99.90;;;;;;4980788;28;20207;-82
2021/03/06 04:09:14;;;;;;;0.63;0.53;;;-3.80;99.90;;;;;;4982551;28;20204;-80
2021/03/06 04:11:40;;;;;;;0.50;0.50;;;-3.90;99.90;;;;;;4980491;28;20206;-81
2021/03/06 04:14:06;;;;;;;0.53;0.53;;;-3.80;99.90;;;;;;4982391;28;20180;-81
2021/03/06 04:16:32;;;;;;;0.67;0.53;;;-3.80;99.90;;;;;;4980505;28;20242;-80
2021/03/06 04:18:57;;;;;;;0.37;0.37;;;-3.80;99.90;;;;;;4981448;28;20678;-81
2021/03/06 04:21:23;;;;;;;0.73;0.40;;;-3.80;99.90;;;;;;4982318;28;20803;-82
2021/03/06 04:23:48;;;;;;;0.57;0.47;;;-3.80;99.90;;;;;;4996546;28;21207;-80
2021/03/06 04:26:14;;;;;;;0.53;0.53;;;-3.90;99.90;;;;;;4981453;28;20670;-78
2021/03/06 04:28:40;;;;;;;1.57;0.93;;;-3.80;99.90;;;;;;4983295;28;20193;-81
2021/03/06 04:31:05;;;;;;;1.80;1.13;;;-3.80;99.90;;;;;;4980844;28;20192;-79
2021/03/06 04:33:31;;;;;;;0.53;0.53;;;-3.90;99.90;;;;;;4981895;28;20211;-80
2021/03/06 04:35:56;;;;;;;1.67;1.57;;;-3.80;99.90;;;;;;4982252;28;20187;-77
2021/03/06 04:38:22;;;;;;;1.07;0.73;;;-3.80;99.90;;;;;;4984006;28;20264;-80
2021/03/06 04:40:47;;;;;;;0.70;0.70;;;-3.80;99.90;;;;;;4981719;28;20187;-82
2021/03/06 04:43:13;;;;;;;0.80;0.80;;;-3.80;99.90;;;;;;4978916;28;20266;-77
2021/03/06 04:45:39;;;;;;;0.80;0.60;;;-3.80;99.90;;;;;;4982120;28;20180;-80
2021/03/06 04:48:05;;;;;;;0.23;0.23;;;-3.80;99.90;;;;;;4982435;28;20603;-77
2021/03/06 04:50:30;;;;;;;0.57;0.57;;;-3.80;99.90;;;;;;4981567;28;20757;-79
2021/03/06 04:52:56;;;;;;;0.30;0.30;;;-3.80;99.90;;;;;;4985091;28;20212;-81
2021/03/06 04:55:21;;;;;;;1.07;0.83;;;-3.80;99.90;;;;;;4985880;28;20195;-79
2021/03/06 04:57:47;;;;;;;0.83;0.83;;;-3.80;99.90;;;;;;4981442;28;20180;-79
2021/03/06 05:00:13;;;;;;;0.83;0.67;;;-3.80;99.90;;;;;;4979994;28;20187;-80
2021/03/06 05:02:39;;;;;;;0.50;0.50;;;-3.90;99.90;;;;;;4980292;28;20224;-79
2021/03/06 05:05:08;;;;;;;0.97;0.60;;;-3.90;99.90;;;;;;4981882;28;20206;-80
2021/03/06 05:07:34;;;;;;;1.60;1.17;;;-3.90;99.90;;;;;;4980597;28;20218;-80
2021/03/06 05:10:00;;;;;;;1.77;0.90;;;-3.90;99.90;;;;;;4981165;28;20661;-78
2021/03/06 05:12:26;;;;;;;0.50;0.50;;;-3.80;99.90;;;;;;4977022;28;20220;-81
2021/03/06 05:14:51;;;;;;;0.70;0.70;;;-3.70;99.90;;;;;;5013560;28;20192;-81
2021/03/06 05:17:17;;;;;;;0.50;0.40;;;-3.70;99.90;;;;;;4981100;28;20194;-78
2021/03/06 05:19:42;;;;;;;1.27;1.13;;;-3.60;99.90;;;;;;4984295;28;20195;-79
2021/03/06 05:22:08;;;;;;;0.83;0.83;;;-3.50;99.90;;;;;;4986431;28;21184;-79
2021/03/06 05:24:34;;;;;;;0.50;0.50;;;-3.50;99.90;;;;;;4984831;28;20180;-80
2021/03/06 05:27:02;;;;;;;0.20;0.20;;;-3.40;99.90;;;;;;4983928;28;20176;-80
2021/03/06 05:29:32;;;;;;;0.60;0.60;;;-3.50;99.90;;;;;;4978169;28;20678;-80
2021/03/06 05:32:04;;;;;;;0.70;0.50;;;-3.40;99.90;;;;;;4977019;28;20219;-79
2021/03/06 05:34:29;;;;;;;0.47;0.47;;;-3.40;99.90;;;;;;4978871;28;20764;-79
2021/03/06 05:36:55;;;;;;;0.70;0.70;;;-3.40;99.90;;;;;;4975159;28;20187;-79
2021/03/06 05:39:20;;;;;;;0.47;0.47;;;-3.40;99.90;;;;;;4978926;28;20823;-79
2021/03/06 05:41:47;;;;;;;0.97;0.80;;;-3.50;99.90;;;;;;4977499;28;20215;-78
2021/03/06 05:44:13;;;;;;;0.60;0.60;;;-3.50;99.90;;;;;;4976860;28;20189;-78
2021/03/06 05:46:41;;;;;;;0.70;0.63;;;-3.50;99.90;;;;;;4979498;28;20246;-79
2021/03/06 05:49:07;;;;;;;0.20;0.20;;;-3.60;99.90;;;;;;4977955;28;20208;-78
2021/03/06 05:51:35;;;;;;;0.53;0.30;;;-3.50;99.90;;;;;;4975093;28;20675;-79
2021/03/06 05:54:06;;;;;;;1.30;1.20;;;-3.50;99.90;;;;;;4979201;28;20209;-79
2021/03/06 05:56:36;;;;;;;0.40;0.40;;;-3.50;99.90;;;;;;4978997;28;20930;-82
2021/03/06 05:59:03;;;;;;;0.60;0.47;;;-3.60;99.90;;;;;;5012063;28;20196;-81
2021/03/06 06:01:30;;;;;;;0.57;0.43;;;-3.50;99.90;;;;;;4994898;28;20683;-80
2021/03/06 06:04:02;;;;;;;1.40;0.63;;;-3.60;99.90;;;;;;4980413;28;20693;-78
2021/03/06 06:06:31;;;;;;;1.20;1.10;;;-3.50;99.90;;;;;;4979871;28;20211;-80
2021/03/06 06:09:01;;;;;;;0.40;0.40;;;-3.50;99.90;;;;;;5013442;28;20694;-80
2021/03/06 06:11:28;;;;;;;0.50;0.50;;;-3.50;99.90;;;;;;4979209;28;20212;-78
2021/03/06 06:14:01;;;;;;;0.70;0.60;;;-3.30;99.90;;;;;;4979656;28;20213;-78
2021/03/06 06:16:31;;;;;;;2.00;1.80;;;-3.30;99.90;;;;;;4978242;28;20181;-80
2021/03/06 06:18:57;;;;;;;0.70;0.60;;;-3.10;99.90;;;;;;5011617;28;20180;-80
2021/03/06 06:21:45;;;;;;;0.70;0.50;;;-3.00;99.90;;;;;;4981213;28;20204;-80
2021/03/06 06:24:14;;;;;;;0.70;0.53;;;-2.90;99.90;;;;;;4975705;28;20562;-80
2021/03/06 06:26:41;;;;;;;0.87;0.73;;;-2.60;99.90;;;;;;4991007;28;20180;-78
2021/03/06 06:29:07;;;;;;;0.60;0.60;;;-2.30;99.90;;;;;;4976296;28;20228;-78
2021/03/06 06:31:33;;;;;;;1.80;0.80;;;-2.20;99.90;;;;;;4976140;28;20200;-78
2021/03/06 06:33:59;;;;;;;0.97;0.87;;;-2.00;99.90;;;;;;4976393;28;20593;-80
2021/03/06 06:36:33;;;;;;;1.40;0.93;;;-1.80;99.90;;;;;;4976883;28;20196;-78
2021/03/06 06:38:59;;;;;;;0.70;0.70;;;-1.70;99.90;;;;;;4993622;28;20186;-80
2021/03/06 06:41:48;;;;;;;0.73;0.60;;;-1.70;99.90;;;;;;4976665;28;20210;-78
2021/03/06 06:44:14;;;;;;;0.60;0.50;;;-1.50;99.90;;;;;;4991299;28;20184;-78
2021/03/06 06:46:40;;;;;;;1.37;0.80;;;-1.40;99.90;;;;;;4977507;28;20426;-81
2021/03/06 06:49:06;;;;;;;0.87;0.67;;;-1.30;99.90;;;;;;4977435;28;20187;-79
2021/03/06 06:51:32;;;;;;;1.50;1.10;;;-1.20;99.90;;;;;;4975709;28;20204;-80
2021/03/06 06:54:13;;;;;;;0.90;0.37;;;-1.00;99.90;;;;;;4977477;28;20600;-81
2021/03/06 06:56:40;;;;;;;0.47;0.47;;;-0.90;99.90;;;;;;4976781;28;20188;-79
2021/03/06 06:59:11;;;;;;;1.37;0.80;;;-0.70;99.90;;;;;;4976371;28;20184;-78
2021/03/06 07:01:37;;;;;;;0.80;0.70;;;-0.60;99.90;;;;;;4992242;28;20196;-79
2021/03/06 07:04:08;;;;;;;2.80;0.60;;;-0.60;99.90;;;;;;4977116;28;20195;-81
2021/03/06 07:06:35;;;;;;;1.10;0.63;;;-0.50;99.90;;;;;;4977347;28;20184;-79
2021/03/06 07:09:12;;;;;;;0.60;0.60;;;-0.40;99.90;;;;;;5007276;28;20235;-79
2021/03/06 07:11:39;;;;;;;0.67;0.67;;;-0.20;99.90;;;;;;4976889;28;20230;-77
2021/03/06 07:14:05;;;;;;;1.20;0.87;;;-0.10;99.90;;;;;;4976232;28;20239;-78
2021/03/06 07:16:56;;;;;;;0.83;0.60;;;0.20;99.90;;;;;;4975665;28;20187;-80
2021/03/06 07:19:27;;;;;;;2.13;0.70;;;0.30;99.90;;;;;;4980528;28;20231;-79
2021/03/06 07:21:54;;;;;;;0.73;0.40;;;0.40;99.90;;;;;;4976918;28;20307;-79
2021/03/06 07:24:19;;;;;;;1.03;0.90;;;0.50;99.90;;;;;;4978430;28;20168;-81
2021/03/06 07:26:51;;;;;;;1.30;1.20;;;0.60;99.90;;;;;;4977101;28;20187;-80
2021/03/06 07:29:17;;;;;;;0.50;0.50;;;0.70;99.90;;;;;;4975440;28;20267;-80
2021/03/06 07:31:46;;;;;;;1.03;0.80;;;0.90;99.90;;;;;;4974309;28;20208;-80
2021/03/06 07:34:12;;;;;;;2.50;1.70;;;0.90;99.90;;;;;;4975540;28;20272;-80
2021/03/06 07:36:41;;;;;;;1.10;1.00;;;1.10;99.90;;;;;;4991452;28;20184;-80
2021/03/06 07:39:07;;;;;;;1.40;1.27;;;1.20;99.90;;;;;;5007746;28;20197;-79
2021/03/06 07:41:39;;;;;;;1.30;1.03;;;1.20;99.90;;;;;;4976630;28;20204;-79
2021/03/06 07:44:07;;;;;;;1.23;0.90;;;1.20;99.90;;;;;;4975822;28;20801;-79
2021/03/06 07:46:38;;;;;;;2.57;1.23;;;1.30;99.90;;;;;;4973727;28;20196;-82
2021/03/06 07:49:11;;;;;;;1.30;0.90;;;1.40;99.90;;;;;;4975926;28;20174;-79
2021/03/06 07:51:41;;;;;;;0.87;0.77;;;1.40;99.90;;;;;;5008213;28;20594;-80
2021/03/06 07:54:08;;;;;;;0.93;0.70;;;1.40;99.90;;;;;;4990878;28;20659;-80
2021/03/06 07:56:36;;;;;;;0.50;0.50;;;1.50;99.90;;;;;;4977540;28;20199;-80
2021/03/06 07:59:02;;;;;;;1.80;0.90;;;1.60;99.90;;;;;;4975375;28;20219;-78
2021/03/06 08:01:32;;;;;;;1.33;0.57;;;1.70;99.90;;;;;;4974068;28;20867;-80
2021/03/06 08:03:59;;;;;;;1.37;1.20;;;1.70;99.90;;;;;;4992174;28;20211;-78
2021/03/06 08:06:32;;;;;;;1.07;0.80;;;1.70;99.90;;;;;;4977984;28;20177;-78
2021/03/06 08:09:05;;;;;;;1.13;0.73;;;1.80;99.90;;;;;;4977184;28;20188;-81
2021/03/06 08:11:33;;;;;;;0.97;0.80;;;1.90;99.90;;;;;;4977893;28;20173;-79
2021/03/06 08:14:03;;;;;;;0.53;0.53;;;1.80;99.90;;;;;;4976632;28;20205;-82
2021/03/06 08:16:29;;;;;;;0.73;0.73;;;1.90;99.90;;;;;;4981713;28;20181;-81
2021/03/06 08:18:59;;;;;;;0.83;0.63;;;2.00;99.90;;;;;;4980312;28;20282;-81
2021/03/06 08:21:28;;;;;;;1.27;1.17;;;2.00;99.90;;;;;;5011263;28;20172;-78
2021/03/06 08:24:15;;;;;;;1.53;1.03;;;2.20;99.90;;;;;;4979604;28;20209;-81
2021/03/06 08:27:11;;;;;;;0.43;0.43;;;2.30;99.90;;;;;;4995906;28;20240;-79
2021/03/06 08:29:37;;;;;;;0.63;0.63;;;2.60;99.90;;;;;;4980870;28;20184;-79
2021/03/06 08:32:17;;;;;;;0.90;0.60;;;2.70;99.90;;;;;;4980128;28;20259;-80
2021/03/06 08:34:46;;;;;;;1.07;0.97;;;2.80;99.90;;;;;;4978853;28;21143;-79
2021/03/06 08:37:15;;;;;;;1.43;0.90;;;2.90;99.90;;;;;;4980579;28;20190;-78
2021/03/06 08:39:47;;;;;;;2.20;1.10;;;3.10;99.90;;;;;;4993828;28;20184;-78
2021/03/06 08:42:15;;;;;;;1.60;1.03;;;3.20;99.90;;;;;;4977598;28;20223;-80
2021/03/06 08:44:41;;;;;;;1.07;0.63;;;3.10;99.90;;;;;;4975469;28;20364;-78
2021/03/06 08:47:08;;;;;;;2.47;0.90;;;3.10;99.90;;;;;;4979215;28;20185;-78
2021/03/06 08:49:35;;;;;;;1.10;0.93;;;3.20;99.90;;;;;;4976754;28;20246;-77
2021/03/06 08:52:00;;;;;;;1.40;0.97;;;3.30;99.90;;;;;;5008251;28;20208;-79
2021/03/06 08:54:27;;;;;;;2.10;1.23;;;3.10;99.90;;;;;;4974666;28;20903;-78
2021/03/06 08:56:53;;;;;;;3.70;1.33;;;3.20;99.90;;;;;;4976358;28;20722;-80
2021/03/06 08:59:36;;;;;;;1.87;1.20;;;3.60;99.90;;;;;;4993413;28;20230;-78
2021/03/06 09:02:16;;;;;;;0.80;0.80;;;3.90;99.90;;;;;;4978117;28;20211;-78
2021/03/06 09:04:42;;;;;;;2.83;1.47;;;3.90;99.90;;;;;;4974167;28;20717;-78
2021/03/06 09:07:31;;;;;;;13.47;1.73;;;3.80;99.90;;;;;;4979432;28;20188;-78
2021/03/06 09:10:22;;;;;;;1.57;1.03;;;3.70;99.90;;;;;;4979047;28;20216;-78
2021/03/06 09:12:49;;;;;;;1.30;1.20;;;3.80;99.90;;;;;;4975542;28;20678;-78
2021/03/06 09:15:50;;;;;;;1.47;1.27;;;3.90;99.90;;;;;;4992590;28;20194;-79
2021/03/06 09:18:27;;;;;;;0.50;0.50;;;4.10;99.90;;;;;;4960626;28;20231;-79
2021/03/06 09:21:15;;;;;;;0.80;0.70;;;4.30;99.90;;;;;;4975001;28;20196;-79
2021/03/06 09:23:46;;;;;;;0.90;0.83;;;4.10;99.90;;;;;;4993767;28;20247;-78
2021/03/06 09:26:17;;;;;;;1.07;0.80;;;3.90;99.90;;;;;;4975937;28;20208;-77
2021/03/06 09:28:44;;;;;;;0.60;0.50;;;3.70;99.90;;;;;;4976040;28;20185;-78
2021/03/06 09:31:16;;;;;;;0.50;0.50;;;3.60;99.90;;;;;;4974928;28;20299;-79
2021/03/06 09:33:43;;;;;;;1.13;0.93;;;3.50;99.90;;;;;;4976959;28;20236;-78
2021/03/06 09:36:19;;;;;;;1.03;0.70;;;3.70;99.90;;;;;;4975143;28;20176;-79
2021/03/06 09:38:50;;;;;;;1.17;0.93;;;3.60;99.90;;;;;;4975241;28;21232;-78
2021/03/06 09:41:19;;;;;;;3.40;1.50;;;3.70;99.90;;;;;;4973440;28;20188;-78
2021/03/06 09:43:56;;;;;;;1.33;1.20;;;3.70;99.90;;;;;;5007055;28;20815;-78
2021/03/06 09:46:27;;;;;;;0.40;0.40;;;4.00;99.90;;;;;;4976602;28;20181;-79
2021/03/06 09:49:01;;;;;;;2.30;0.90;;;4.00;99.90;;;;;;4975869;28;20172;-78
2021/03/06 09:51:46;;;;;;;0.53;0.53;;;4.10;99.90;;;;;;4975362;28;20196;-77
2021/03/06 09:54:17;;;;;;;0.97;0.70;;;4.30;99.90;;;;;;5005150;28;20246;-78
2021/03/06 09:56:56;;;;;;;0.60;0.60;;;4.10;99.90;;;;;;4974514;28;20714;-76
2021/03/06 09:59:23;;;;;;;0.83;0.50;;;4.10;99.90;;;;;;4975053;28;20181;-78
2021/03/06 10:01:49;;;;;;;0.90;0.60;;;4.10;99.90;;;;;;4988383;28;20579;-78
2021/03/06 10:04:18;;;;;;;0.67;0.43;;;4.10;99.90;;;;;;4974148;28;20185;-78
2021/03/06 10:06:48;;;;;;;0.80;0.80;;;4.20;99.90;;;;;;4976564;28;20177;-77
2021/03/06 10:09:16;;;;;;;0.87;0.73;;;4.20;99.90;;;;;;4979088;28;20223;-82
2021/03/06 10:11:47;;;;;;;1.77;1.00;;;4.30;99.90;;;;;;4974680;28;20214;-80
2021/03/06 10:14:18;;;;;;;1.13;0.70;;;4.60;99.90;;;;;;4975872;28;20235;-77
2021/03/06 10:16:48;;;;;;;0.80;0.70;;;4.80;99.90;;;;;;4992538;28;20184;-78
2021/03/06 10:19:14;;;;;;;2.00;1.07;;;4.80;99.90;;;;;;4975098;28;20274;-78
2021/03/06 10:21:40;;;;;;;1.63;1.07;;;4.80;99.90;;;;;;4974896;28;20212;-79
2021/03/06 10:24:07;;;;;;;1.90;1.37;;;4.70;99.90;;;;;;4988787;28;20185;-78
2021/03/06 10:26:33;;;;;;;0.80;0.60;;;4.60;99.90;;;;;;4975072;28;20613;-79
2021/03/06 10:29:17;;;;;;;2.03;1.30;;;4.40;99.90;;;;;;4979038;28;20226;-78
2021/03/06 10:31:43;;;;;;;0.87;0.80;;;4.40;99.90;;;;;;4976576;28;20195;-79
2021/03/06 10:34:15;;;;;;;1.10;0.90;;;4.30;99.90;;;;;;4974195;28;20185;-78
2021/03/06 10:36:42;;;;;;;0.60;0.60;;;4.30;99.90;;;;;;4991758;28;20208;-78
2021/03/06 10:39:16;;;;;;;3.10;1.67;;;4.50;99.90;;;;;;4991036;28;20181;-78
2021/03/06 10:41:42;;;;;;;2.13;1.30;;;4.80;99.90;;;;;;4972891;28;20231;-78
2021/03/06 10:44:07;;;;;;;2.23;1.40;;;5.00;99.90;;;;;;4976895;28;20212;-78
2021/03/06 10:46:35;;;;;;;0.60;0.60;;;5.20;99.90;;;;;;4973670;28;20212;-79
2021/03/06 10:49:06;;;;;;;0.50;0.50;;;5.10;99.90;;;;;;4973841;28;20183;-78
2021/03/06 10:52:01;;;;;;;0.37;0.27;;;5.00;99.90;;;;;;4976689;28;20200;-78
2021/03/06 10:54:27;;;;;;;0.37;0.37;;;5.00;99.90;;;;;;4966403;28;20211;-78
2021/03/06 10:57:06;;;;;;;1.80;0.70;;;5.10;99.90;;;;;;4973340;28;20549;-78
2021/03/06 10:59:35;;;;;;;0.50;0.50;;;5.10;99.90;;;;;;5006246;28;20192;-78
2021/03/06 11:02:02;;;;;;;0.60;0.50;;;4.90;99.90;;;;;;4972161;28;20220;-80
2021/03/06 11:04:30;;;;;;;1.03;0.77;;;4.60;99.90;;;;;;4988215;28;20259;-80
2021/03/06 11:06:58;;;;;;;0.53;0.50;;;4.60;99.90;;;;;;4975177;28;20180;-79
2021/03/06 11:09:30;;;;;;;2.97;0.50;;;4.50;99.90;;;;;;4975484;28;20594;-80
2021/03/06 11:11:56;;;;;;;1.13;0.70;;;4.70;99.90;;;;;;4974291;28;20185;-80
2021/03/06 11:14:26;;;;;;;0.80;0.70;;;4.90;99.90;;;;;;4976049;28;20235;-82
2021/03/06 11:16:52;;;;;;;1.07;0.53;;;4.90;99.90;;;;;;4975274;28;20180;-78
2021/03/06 11:19:18;;;;;;;0.47;0.33;;;5.20;99.90;;;;;;4975027;28;21227;-79
2021/03/06 11:21:44;;;;;;;0.30;0.30;;;5.30;99.90;;;;;;4976392;28;20263;-81
2021/03/06 11:24:10;;;;;;;0.80;0.50;;;5.50;99.90;;;;;;4976817;28;20189;-78
2021/03/06 11:26:37;;;;;;;0.70;0.70;;;5.40;99.90;;;;;;4976856;28;20194;-78
2021/03/06 11:29:04;;;;;;;1.00;0.50;;;5.60;99.90;;;;;;4976057;28;20268;-80
2021/03/06 11:31:32;;;;;;;0.63;0.60;;;5.90;99.90;;;;;;4975960;28;20176;-78
2021/03/06 11:33:58;;;;;;;0.70;0.50;;;6.00;99.90;;;;;;4976854;28;20200;-80
2021/03/06 11:36:23;;;;;;;1.07;0.83;;;6.10;99.90;;;;;;4974250;28;20728;-78
2021/03/06 11:38:49;;;;;;;0.60;0.60;;;6.30;99.90;;;;;;4976534;28;20180;-79
2021/03/06 11:41:15;;;;;;;2.20;0.73;;;6.00;99.90;;;;;;4974247;28;20193;-78
2021/03/06 11:43:41;;;;;;;0.67;0.67;;;6.10;99.90;;;;;;4975524;28;20578;-80
2021/03/06 11:46:06;;;;;;;0.90;0.60;;;6.10;99.90;;;;;;4976055;28;20228;-81
2021/03/06 11:48:32;;;;;;;0.63;0.60;;;5.80;99.90;;;;;;4975139;28;20195;-78
2021/03/06 11:50:58;;;;;;;1.20;1.10;;;6.00;99.90;;;;;;4979506;28;20193;-79
2021/03/06 11:53:23;;;;;;;0.83;0.83;;;6.00;99.90;;;;;;4978089;28;20679;-77
2021/03/06 11:55:49;;;;;;;0.50;0.50;;;6.10;99.90;;;;;;4976801;28;20261;-79
2021/03/06 11:58:15;;;;;;;0.73;0.70;;;6.00;99.90;;;;;;4976825;28;20188;-80
2021/03/06 12:00:41;;;;;;;0.37;0.30;;;6.10;99.90;;;;;;4978788;28;20658;-80
2021/03/06 12:03:07;;;;;;;0.77;0.77;;;6.30;99.90;;;;;;4980106;28;20216;-79
2021/03/06 12:05:33;;;;;;;1.50;1.10;;;6.50;99.90;;;;;;4979444;28;20288;-79
2021/03/06 12:07:59;;;;;;;0.83;0.50;;;6.50;99.90;;;;;;4978131;28;20183;-80
2021/03/06 12:10:31;;;;;;;0.40;0.40;;;6.50;99.90;;;;;;4993157;28;20176;-80
2021/03/06 12:12:57;;;;;;;0.50;0.50;;;6.10;99.90;;;;;;4980034;28;20212;-79
2021/03/06 12:15:24;;;;;;;0.40;0.40;;;6.00;99.90;;;;;;4978215;28;20185;-80
2021/03/06 12:17:51;;;;;;;0.50;0.50;;;6.20;99.90;;;;;;4979717;28;20243;-81
2021/03/06 12:20:18;;;;;;;0.50;0.50;;;6.40;99.90;;;;;;4980339;28;20540;-80
2021/03/06 12:22:45;;;;;;;3.23;1.20;;;6.60;99.90;;;;;;4979268;28;20305;-78
2021/03/06 12:25:12;;;;;;;0.53;0.53;;;6.60;99.90;;;;;;4979205;28;20238;-79
2021/03/06 12:27:39;;;;;;;0.70;0.70;;;6.60;99.90;;;;;;4977422;28;20553;-77
2021/03/06 12:30:08;;;;;;;0.93;0.73;;;6.50;99.90;;;;;;4976527;28;20189;-79
2021/03/06 12:32:34;;;;;;;1.30;0.93;;;6.40;99.90;;;;;;4974702;28;20272;-78
2021/03/06 12:35:01;;;;;;;1.13;0.90;;;6.40;99.90;;;;;;4977654;28;20555;-79
2021/03/06 12:37:26;;;;;;;0.67;0.60;;;6.60;99.90;;;;;;4974225;28;20679;-78
2021/03/06 12:39:52;;;;;;;0.57;0.43;;;6.80;99.90;;;;;;4978183;28;20187;-79
2021/03/06 12:42:18;;;;;;;1.07;0.67;;;6.80;99.90;;;;;;4991945;28;20211;-79
2021/03/06 12:44:43;;;;;;;1.37;0.97;;;6.70;99.90;;;;;;4978748;28;20865;-80
2021/03/06 12:47:10;;;;;;;1.10;0.60;;;6.80;99.90;;;;;;4975608;28;20180;-80
2021/03/06 12:49:35;;;;;;;1.30;0.93;;;6.80;99.90;;;;;;4978251;28;20276;-80
2021/03/06 12:52:01;;;;;;;1.70;1.30;;;6.70;99.90;;;;;;4977030;28;20694;-80
2021/03/06 12:54:28;;;;;;;1.17;1.07;;;6.60;99.90;;;;;;4976215;28;20712;-79
2021/03/06 12:56:54;;;;;;;1.20;0.93;;;6.60;99.90;;;;;;4978220;28;20239;-80
2021/03/06 12:59:20;;;;;;;1.57;1.10;;;6.50;99.90;;;;;;4978057;28;20189;-79